createdAt,value
2022-08-20T00:02:13.857Z,100611.44
2022-08-20T00:04:43.131Z,100619.53
2022-08-20T00:07:11.063Z,100616.91
2022-08-20T00:09:38.925Z,100626.78
2022-08-20T00:12:07.538Z,100628.66
2022-08-20T00:14:36.417Z,100648.66
2022-08-20T00:17:05.868Z,100647.09
2022-08-20T00:19:33.719Z,100645.50
2022-08-20T00:22:02.983Z,100642.06
2022-08-20T00:24:31.284Z,100638.56
2022-08-20T00:26:59.145Z,100622.47
2022-08-20T00:29:27.086Z,100620.63
2022-08-20T00:31:54.923Z,100606.31
2022-08-20T00:34:22.953Z,100600.06
2022-08-20T00:36:50.791Z,100597.34
2022-08-20T00:39:19.942Z,100600.97
2022-08-20T00:41:47.791Z,100595.59
2022-08-20T00:44:18.617Z,100589.34
2022-08-20T00:46:47.872Z,100592.97
2022-08-20T00:49:18.716Z,100598.41
2022-08-20T00:51:50.237Z,100600.34
2022-08-20T00:54:23.413Z,100609.25
2022-08-20T00:56:57.165Z,100604.81
2022-08-20T00:59:28.058Z,100603.94
2022-08-20T01:01:56.671Z,100602.19
2022-08-20T01:04:26.430Z,100598.56
2022-08-20T01:06:55.212Z,100607.56
2022-08-20T01:09:49.767Z,100610.31
2022-08-20T01:12:28.411Z,100620.28
2022-08-20T01:14:59.023Z,100621.22
2022-08-20T01:17:29.871Z,100619.47
2022-08-20T01:20:02.415Z,100623.97
2022-08-20T01:22:57.316Z,100625.78
2022-08-20T01:25:33.492Z,100627.56
2022-08-20T01:28:03.302Z,100622.22
2022-08-20T01:30:34.983Z,100622.28
2022-08-20T01:33:02.980Z,100625.84
2022-08-20T01:35:31.124Z,100623.16
2022-08-20T01:37:58.962Z,100622.28
2022-08-20T01:40:45.514Z,100624.13
2022-08-20T01:43:15.191Z,100622.34
2022-08-20T01:45:45.197Z,100618.78
2022-08-20T01:48:14.117Z,100611.69
2022-08-20T01:50:48.731Z,100620.59
2022-08-20T01:53:23.241Z,100610.78
2022-08-20T01:55:51.271Z,100616.22
2022-08-20T01:58:20.543Z,100616.22
2022-08-20T02:00:48.558Z,100616.22
2022-08-20T02:03:16.373Z,100628.72
2022-08-20T02:05:45.228Z,100623.44
2022-08-20T02:08:13.201Z,100621.66
2022-08-20T02:10:41.578Z,100628.88
2022-08-20T02:13:10.215Z,100619.91
2022-08-20T02:15:39.944Z,100629.78
2022-08-20T02:18:14.304Z,100624.47
2022-08-20T02:20:44.487Z,100629.84
2022-08-20T02:23:13.209Z,100629.00
2022-08-20T02:25:43.233Z,100627.28
2022-08-20T02:28:14.216Z,100623.72
2022-08-20T02:30:47.030Z,100623.72
2022-08-20T02:33:17.315Z,100624.59
2022-08-20T02:35:47.976Z,100635.34
2022-08-20T02:38:17.565Z,100629.09
2022-08-20T02:40:49.126Z,100651.50
2022-08-20T02:43:18.379Z,100645.31
2022-08-20T02:45:48.242Z,100648.00
2022-08-20T02:48:22.759Z,100644.44
2022-08-20T02:50:56.821Z,100640.94
2022-08-20T02:53:25.558Z,100648.13
2022-08-20T02:55:53.695Z,100650.81
2022-08-20T02:58:22.648Z,100642.75
2022-08-20T03:00:51.993Z,100646.38
2022-08-20T03:03:22.718Z,100651.78
2022-08-20T03:05:52.628Z,100656.34
2022-08-20T03:08:21.757Z,100665.28
2022-08-20T03:10:50.576Z,100663.53
2022-08-20T03:13:19.921Z,100653.72
2022-08-20T03:15:56.477Z,100644.78
2022-08-20T03:18:28.889Z,100651.94
2022-08-20T03:20:56.895Z,100656.53
2022-08-20T03:23:25.167Z,100652.06
2022-08-20T03:25:53.098Z,100652.13
2022-08-20T03:28:21.170Z,100653.88
2022-08-20T03:30:50.467Z,100643.16
2022-08-20T03:33:20.317Z,100645.88
2022-08-20T03:35:48.398Z,100649.47
2022-08-20T03:38:18.677Z,100650.38
2022-08-20T03:41:00.856Z,100645.06
2022-08-20T03:43:29.215Z,100642.41
2022-08-20T03:45:57.165Z,100653.19
2022-08-20T03:48:26.631Z,100657.69
2022-08-20T03:50:56.702Z,100656.81
2022-08-20T03:53:24.665Z,100654.16
2022-08-20T03:56:00.455Z,100655.06
2022-08-20T03:58:35.428Z,100650.59
2022-08-20T04:01:06.728Z,100653.31
2022-08-20T04:03:36.705Z,100659.69
2022-08-20T04:06:05.199Z,100648.09
2022-08-20T04:08:33.088Z,100656.22
2022-08-20T04:11:01.201Z,100658.03
2022-08-20T04:13:31.679Z,100652.72
2022-08-20T04:16:01.884Z,100658.09
2022-08-20T04:18:29.977Z,100649.22
2022-08-20T04:20:59.250Z,100653.72
2022-08-20T04:23:27.074Z,100647.53
2022-08-20T04:25:56.631Z,100653.78
2022-08-20T04:28:26.945Z,100653.84
2022-08-20T04:30:55.892Z,100651.19
2022-08-20T04:33:35.334Z,100644.94
2022-08-20T04:36:07.022Z,100645.88
2022-08-20T04:38:50.448Z,100653.06
2022-08-20T04:41:22.811Z,100657.59
2022-08-20T04:43:53.144Z,100655.81
2022-08-20T04:46:23.655Z,100646.88
2022-08-20T04:48:51.611Z,100646.00
2022-08-20T04:51:22.903Z,100651.38
2022-08-20T04:53:53.555Z,100646.88
2022-08-20T04:56:24.028Z,100649.56
2022-08-20T04:58:53.295Z,100653.13
2022-08-20T05:01:21.948Z,100657.66
2022-08-20T05:03:49.983Z,100644.19
2022-08-20T05:06:19.921Z,100654.06
2022-08-20T05:08:48.162Z,100654.06
2022-08-20T05:11:36.049Z,100650.44
2022-08-20T05:14:05.708Z,100649.56
2022-08-20T05:16:38.332Z,100655.81
2022-08-20T05:19:08.748Z,100664.72
2022-08-20T05:21:38.239Z,100660.19
2022-08-20T05:24:06.777Z,100661.09
2022-08-20T05:26:34.960Z,100661.03
2022-08-20T05:29:04.938Z,100663.72
2022-08-20T05:31:33.689Z,100668.97
2022-08-20T05:34:09.765Z,100668.03
2022-08-20T05:36:41.536Z,100670.63
2022-08-20T05:39:10.420Z,100664.19
2022-08-20T05:41:38.963Z,100671.22
2022-08-20T05:44:10.130Z,100676.47
2022-08-20T05:46:40.477Z,100675.41
2022-08-20T05:49:08.618Z,100681.56
2022-08-20T05:51:37.496Z,100671.59
2022-08-20T05:54:07.958Z,100678.63
2022-08-20T05:56:36.061Z,100682.09
2022-08-20T05:59:06.020Z,100681.06
2022-08-20T06:01:35.393Z,100690.84
2022-08-20T06:04:21.352Z,100689.78
2022-08-20T06:06:51.158Z,100681.59
2022-08-20T06:09:31.572Z,100694.94
2022-08-20T06:12:01.799Z,100693.06
2022-08-20T06:14:29.873Z,100707.25
2022-08-20T06:17:04.090Z,100695.41
2022-08-20T06:19:33.256Z,100698.97
2022-08-20T06:22:02.102Z,100702.41
2022-08-20T06:24:32.906Z,100698.69
2022-08-20T06:27:02.775Z,100703.03
2022-08-20T06:29:33.416Z,100708.25
2022-08-20T06:32:02.049Z,100718.06
2022-08-20T06:34:31.233Z,100720.63
2022-08-20T06:37:00.162Z,100721.34
2022-08-20T06:39:29.210Z,100719.41
2022-08-20T06:41:59.551Z,100729.03
2022-08-20T06:44:28.545Z,100722.59
2022-08-20T06:47:00.842Z,100725.03
2022-08-20T06:49:28.773Z,100722.09
2022-08-20T06:52:03.471Z,100737.94
2022-08-20T06:54:32.702Z,100740.38
2022-08-20T06:57:02.206Z,100733.84
2022-08-20T06:59:30.171Z,100733.53
2022-08-20T07:01:58.075Z,100733.25
2022-08-20T07:04:27.253Z,100730.34
2022-08-20T07:06:55.650Z,100732.00
2022-08-20T07:09:23.514Z,100729.00
2022-08-20T07:11:52.273Z,100730.53
2022-08-20T07:14:22.301Z,100730.19
2022-08-20T07:16:50.599Z,100735.16
2022-08-20T07:19:18.664Z,100736.44
2022-08-20T07:21:47.640Z,100740.47
2022-08-20T07:24:15.527Z,100749.09
2022-08-20T07:26:43.824Z,100740.78
2022-08-20T07:29:11.702Z,100741.47
2022-08-20T07:31:58.241Z,100747.44
2022-08-20T07:34:26.102Z,100753.34
2022-08-20T07:36:53.944Z,100753.06
2022-08-20T07:39:22.883Z,100752.88
2022-08-20T07:42:03.123Z,100758.06
2022-08-20T07:44:31.404Z,100760.63
2022-08-20T07:47:01.037Z,100756.28
2022-08-20T07:49:28.884Z,100761.16
2022-08-20T07:51:56.868Z,100764.00
2022-08-20T07:54:24.923Z,100760.59
2022-08-20T07:56:52.842Z,100766.06
2022-08-20T07:59:20.705Z,100771.44
2022-08-20T08:01:49.176Z,100765.13
2022-08-20T08:04:18.414Z,100765.97
2022-08-20T08:06:46.252Z,100774.94
2022-08-20T08:09:15.585Z,100769.66
2022-08-20T08:11:50.352Z,100776.84
2022-08-20T08:14:23.599Z,100773.16
2022-08-20T08:16:51.957Z,100767.69
2022-08-20T08:19:21.957Z,100773.00
2022-08-20T08:21:50.018Z,100763.94
2022-08-20T08:24:21.023Z,100775.47
2022-08-20T08:26:50.830Z,100763.66
2022-08-20T08:29:18.976Z,100773.44
2022-08-20T08:31:46.892Z,100781.50
2022-08-20T08:34:25.384Z,100776.09
2022-08-20T08:36:54.613Z,100778.72
2022-08-20T08:39:23.978Z,100774.13
2022-08-20T08:41:55.062Z,100770.34
2022-08-20T08:44:27.141Z,100775.50
2022-08-20T08:46:58.124Z,100770.84
2022-08-20T08:49:37.526Z,100778.72
2022-08-20T08:52:14.794Z,100780.34
2022-08-20T08:54:47.333Z,100772.97
2022-08-20T08:57:15.722Z,100775.34
2022-08-20T08:59:58.176Z,100784.03
2022-08-20T09:02:32.239Z,100776.38
2022-08-20T09:05:03.397Z,100782.13
2022-08-20T09:07:34.693Z,100792.56
2022-08-20T09:10:03.233Z,100781.44
2022-08-20T09:12:31.253Z,100789.47
2022-08-20T09:14:59.106Z,100794.59
2022-08-20T09:17:26.932Z,100794.22
2022-08-20T09:19:54.744Z,100791.19
2022-08-20T09:22:25.938Z,100789.13
2022-08-20T09:24:56.282Z,100796.28
2022-08-20T09:27:24.120Z,100791.75
2022-08-20T09:29:53.460Z,100794.22
2022-08-20T09:32:24.550Z,100793.94
2022-08-20T09:34:56.882Z,100796.44
2022-08-20T09:37:26.662Z,100807.81
2022-08-20T09:39:56.412Z,100794.94
2022-08-20T09:42:26.158Z,100795.50
2022-08-20T09:44:54.341Z,100801.38
2022-08-20T09:47:22.811Z,100801.84
2022-08-20T09:49:51.047Z,100805.16
2022-08-20T09:52:24.598Z,100800.97
2022-08-20T09:54:58.171Z,100792.19
2022-08-20T09:57:27.422Z,100786.00
2022-08-20T09:59:58.148Z,100788.72
2022-08-20T10:02:26.155Z,100797.84
2022-08-20T10:04:54.119Z,100799.09
2022-08-20T10:07:21.944Z,100798.47
2022-08-20T10:09:49.748Z,100795.34
2022-08-20T10:12:18.981Z,100796.72
2022-08-20T10:14:46.770Z,100792.59
2022-08-20T10:17:15.605Z,100790.06
2022-08-20T10:19:43.435Z,100802.09
2022-08-20T10:22:12.397Z,100795.06
2022-08-20T10:24:40.216Z,100799.88
2022-08-20T10:27:08.197Z,100803.00
2022-08-20T10:29:37.409Z,100798.09
2022-08-20T10:32:13.270Z,100794.97
2022-08-20T10:34:41.768Z,100810.81
2022-08-20T10:37:09.886Z,100805.56
2022-08-20T10:39:37.735Z,100803.63
2022-08-20T10:42:05.791Z,100803.53
2022-08-20T10:44:33.636Z,100810.63
2022-08-20T10:47:14.497Z,100805.97
2022-08-20T10:49:42.440Z,100802.09
2022-08-20T10:52:10.254Z,100805.47
2022-08-20T10:54:41.412Z,100807.06
2022-08-20T10:57:10.939Z,100800.47
2022-08-20T10:59:40.486Z,100801.03
2022-08-20T11:02:09.920Z,100799.00
2022-08-20T11:04:38.105Z,100800.94
2022-08-20T11:07:13.950Z,100803.66
2022-08-20T11:09:42.071Z,100797.84
2022-08-20T11:12:10.404Z,100792.63
2022-08-20T11:14:38.285Z,100793.38
2022-08-20T11:17:07.080Z,100798.06
2022-08-20T11:19:40.804Z,100805.22
2022-08-20T11:22:09.279Z,100802.97
2022-08-20T11:24:37.872Z,100805.19
2022-08-20T11:27:08.650Z,100803.34
2022-08-20T11:29:36.942Z,100812.72
2022-08-20T11:32:06.536Z,100814.13
2022-08-20T11:34:36.300Z,100803.84
2022-08-20T11:37:04.265Z,100817.13
2022-08-20T11:39:32.088Z,100806.25
2022-08-20T11:41:59.940Z,100795.91
2022-08-20T11:44:27.857Z,100807.16
2022-08-20T11:46:58.271Z,100802.94
2022-08-20T11:49:26.194Z,100806.09
2022-08-20T11:51:55.350Z,100802.78
2022-08-20T11:54:23.194Z,100804.63
2022-08-20T11:56:51.153Z,100804.72
2022-08-20T11:59:18.999Z,100806.59
2022-08-20T12:02:02.957Z,100807.59
2022-08-20T12:04:36.359Z,100808.38
2022-08-20T12:07:14.736Z,100809.16
2022-08-20T12:09:51.040Z,100815.63
2022-08-20T12:12:22.380Z,100817.38
2022-08-20T12:14:50.186Z,100823.00
2022-08-20T12:17:21.406Z,100813.44
2022-08-20T12:19:49.255Z,100822.84
2022-08-20T12:22:24.368Z,100818.56
2022-08-20T12:24:54.163Z,100827.81
2022-08-20T12:27:24.297Z,100820.22
2022-08-20T12:29:53.528Z,100827.97
2022-08-20T12:32:22.042Z,100827.19
2022-08-20T12:34:50.117Z,100829.53
2022-08-20T12:37:21.424Z,100828.91
2022-08-20T12:39:51.250Z,100827.16
2022-08-20T12:42:20.051Z,100829.06
2022-08-20T12:44:48.578Z,100833.53
2022-08-20T12:47:19.250Z,100828.03
2022-08-20T12:49:49.268Z,100828.81
2022-08-20T12:52:19.915Z,100822.28
2022-08-20T12:54:48.252Z,100821.84
2022-08-20T12:57:17.134Z,100813.41
2022-08-20T12:59:44.947Z,100827.38
2022-08-20T13:02:15.777Z,100821.78
2022-08-20T13:04:47.123Z,100826.00
2022-08-20T13:07:16.175Z,100822.41
2022-08-20T13:09:45.560Z,100820.38
2022-08-20T13:12:14.309Z,100817.44
2022-08-20T13:14:42.752Z,100821.78
2022-08-20T13:17:11.233Z,100813.34
2022-08-20T13:19:40.057Z,100817.28
2022-08-20T13:22:07.942Z,100811.44
2022-08-20T13:24:35.709Z,100813.59
2022-08-20T13:27:10.136Z,100815.06
2022-08-20T13:29:38.099Z,100814.72
2022-08-20T13:32:06.686Z,100810.59
2022-08-20T13:34:34.516Z,100811.81
2022-08-20T13:37:02.459Z,100808.66
2022-08-20T13:39:30.262Z,100808.19
2022-08-20T13:41:58.071Z,100805.41
2022-08-20T13:44:31.336Z,100812.28
2022-08-20T13:47:01.473Z,100816.50
2022-08-20T13:49:29.269Z,100808.84
2022-08-20T13:52:01.713Z,100811.34
2022-08-20T13:54:30.212Z,100813.53
2022-08-20T13:57:05.991Z,100807.13
2022-08-20T13:59:38.211Z,100802.41
2022-08-20T14:02:07.531Z,100808.41
2022-08-20T14:04:35.699Z,100808.09
2022-08-20T14:07:11.645Z,100803.56
2022-08-20T14:09:40.662Z,100795.69
2022-08-20T14:12:09.588Z,100801.31
2022-08-20T14:14:38.775Z,100805.47
2022-08-20T14:17:17.258Z,100795.13
2022-08-20T14:19:45.236Z,100805.50
2022-08-20T14:22:13.253Z,100802.53
2022-08-20T14:24:41.306Z,100802.44
2022-08-20T14:27:10.402Z,100801.28
2022-08-20T14:29:42.230Z,100807.69
2022-08-20T14:32:11.042Z,100805.06
2022-08-20T14:34:39.900Z,100806.09
2022-08-20T14:37:12.920Z,100804.97
2022-08-20T14:39:40.940Z,100805.53
2022-08-20T14:42:09.222Z,100799.25
2022-08-20T14:44:37.155Z,100805.34
2022-08-20T14:47:17.982Z,100808.94
2022-08-20T14:49:46.613Z,100808.16
2022-08-20T14:52:16.890Z,100804.50
2022-08-20T14:54:45.624Z,100811.66
2022-08-20T14:57:16.074Z,100809.03
2022-08-20T14:59:44.355Z,100798.28
2022-08-20T15:02:14.439Z,100801.19
2022-08-20T15:04:45.378Z,100809.16
2022-08-20T15:07:25.493Z,100812.81
2022-08-20T15:09:57.030Z,100811.28
2022-08-20T15:12:25.776Z,100803.31
2022-08-20T15:14:53.689Z,100800.94
2022-08-20T15:17:24.159Z,100800.09
2022-08-20T15:19:54.045Z,100802.03
2022-08-20T15:22:23.476Z,100806.56
2022-08-20T15:24:55.576Z,100805.78
2022-08-20T15:27:26.714Z,100814.03
2022-08-20T15:29:55.019Z,100811.63
2022-08-20T15:32:22.982Z,100816.56
2022-08-20T15:34:51.211Z,100817.63
2022-08-20T15:37:22.415Z,100813.03
2022-08-20T15:39:51.319Z,100822.09
2022-08-20T15:42:20.127Z,100817.63
2022-08-20T15:44:48.317Z,100817.78
2022-08-20T15:47:25.234Z,100824.31
2022-08-20T15:49:57.078Z,100825.44
2022-08-20T15:52:32.205Z,100825.66
2022-08-20T15:55:02.053Z,100814.06
2022-08-20T15:57:42.082Z,100820.50
2022-08-20T16:00:16.313Z,100819.91
2022-08-20T16:03:17.210Z,100821.03
2022-08-20T16:05:53.003Z,100822.47
2022-08-20T16:08:49.562Z,100820.13
2022-08-20T16:11:29.832Z,100830.34
2022-08-20T16:14:04.585Z,100827.81
2022-08-20T16:16:34.685Z,100830.53
2022-08-20T16:19:04.114Z,100830.63
2022-08-20T16:21:37.163Z,100832.66
2022-08-20T16:24:07.755Z,100827.22
2022-08-20T16:26:57.975Z,100844.38
2022-08-20T16:29:32.769Z,100847.97
2022-08-20T16:32:04.710Z,100843.50
2022-08-20T16:34:37.941Z,100841.66
2022-08-20T16:37:12.922Z,100847.16
2022-08-20T16:39:49.855Z,100848.25
2022-08-20T16:42:24.273Z,100843.75
2022-08-20T16:44:57.741Z,100851.03
2022-08-20T16:47:30.486Z,100860.13
2022-08-20T16:50:01.723Z,100871.00
2022-08-20T16:52:29.814Z,100857.50
2022-08-20T16:54:59.280Z,100866.88
2022-08-20T16:57:28.383Z,100860.78
2022-08-20T17:00:07.832Z,100860.06
2022-08-20T17:02:35.824Z,100862.97
2022-08-20T17:05:04.845Z,100863.81
2022-08-20T17:07:44.897Z,100859.47
2022-08-20T17:10:21.328Z,100859.53
2022-08-20T17:12:54.588Z,100859.81
2022-08-20T17:15:26.641Z,100858.16
2022-08-20T17:17:55.993Z,100860.97
2022-08-20T17:20:28.054Z,100860.25
2022-08-20T17:23:18.458Z,100862.19
2022-08-20T17:25:57.796Z,100857.00
2022-08-20T17:28:26.500Z,100862.59
2022-08-20T17:30:54.839Z,100866.47
2022-08-20T17:33:34.807Z,100858.59
2022-08-20T17:36:11.216Z,100852.53
2022-08-20T17:38:46.855Z,100862.66
2022-08-20T17:41:24.395Z,100859.25
2022-08-20T17:43:58.718Z,100861.34
2022-08-20T17:46:30.338Z,100861.56
2022-08-20T17:49:00.979Z,100867.25
2022-08-20T17:51:34.809Z,100860.34
2022-08-20T17:54:10.192Z,100856.06
2022-08-20T17:56:41.937Z,100862.56
2022-08-20T17:59:24.070Z,100861.94
2022-08-20T18:02:04.964Z,100861.47
2022-08-20T18:04:32.959Z,100869.97
2022-08-20T18:07:09.420Z,100879.38
2022-08-20T18:09:44.624Z,100877.06
2022-08-20T18:12:34.298Z,100874.72
2022-08-20T18:15:09.467Z,100883.25
2022-08-20T18:18:08.721Z,100880.13
2022-08-20T18:21:00.242Z,100888.56
2022-08-20T18:23:31.128Z,100882.66
2022-08-20T18:26:05.040Z,100882.19
2022-08-20T18:28:39.563Z,100895.22
2022-08-20T18:31:10.574Z,100897.53
2022-08-20T18:33:42.114Z,100890.63
2022-08-20T18:36:13.586Z,100893.66
2022-08-20T18:38:43.071Z,100890.41
2022-08-20T18:41:14.093Z,100897.94
2022-08-20T18:43:44.487Z,100904.59
2022-08-20T18:46:22.735Z,100902.19
2022-08-20T18:48:53.350Z,100904.38
2022-08-20T18:51:24.971Z,100909.19
2022-08-20T18:53:52.983Z,100909.56
2022-08-20T18:56:33.530Z,100910.81
2022-08-20T18:59:07.056Z,100914.56
2022-08-20T19:01:37.466Z,100908.56
2022-08-20T19:04:18.218Z,100905.28
2022-08-20T19:06:51.662Z,100910.97
2022-08-20T19:09:45.233Z,100903.09
2022-08-20T19:12:30.511Z,100914.19
2022-08-20T19:15:07.454Z,100905.50
2022-08-20T19:17:45.855Z,100914.81
2022-08-20T19:20:19.039Z,100909.66
2022-08-20T19:22:48.455Z,100908.25
2022-08-20T19:25:28.204Z,100912.00
2022-08-20T19:27:58.299Z,100907.75
2022-08-20T19:30:38.703Z,100905.31
2022-08-20T19:33:08.117Z,100909.16
2022-08-20T19:35:37.708Z,100906.66
2022-08-20T19:38:07.855Z,100905.09
2022-08-20T19:40:40.145Z,100913.47
2022-08-20T19:43:16.207Z,100910.09
2022-08-20T19:45:49.360Z,100908.47
2022-08-20T19:48:56.393Z,100899.81
2022-08-20T19:51:31.677Z,100910.75
2022-08-20T19:53:59.513Z,100916.38
2022-08-20T19:56:29.033Z,100915.75
2022-08-20T19:59:02.412Z,100918.63
2022-08-20T20:01:32.542Z,100917.13
2022-08-20T20:04:02.716Z,100916.41
2022-08-20T20:06:34.696Z,100913.03
2022-08-20T20:09:07.242Z,100922.19
2022-08-20T20:11:37.647Z,100915.19
2022-08-20T20:14:07.455Z,100916.31
2022-08-20T20:16:38.432Z,100917.47
2022-08-20T20:19:27.772Z,100915.88
2022-08-20T20:22:10.405Z,100915.19
2022-08-20T20:24:49.956Z,100910.88
2022-08-20T20:27:23.262Z,100905.66
2022-08-20T20:29:58.610Z,100912.06
2022-08-20T20:32:30.389Z,100918.53
2022-08-20T20:35:02.026Z,100921.38
2022-08-20T20:37:50.087Z,100921.50
2022-08-20T20:40:25.499Z,100928.81
2022-08-20T20:43:03.003Z,100921.78
2022-08-20T20:45:34.525Z,100926.41
2022-08-20T20:48:19.262Z,100939.06
2022-08-20T20:50:48.196Z,100931.19
2022-08-20T20:53:40.302Z,100923.22
2022-08-20T20:56:28.889Z,100933.22
2022-08-20T20:58:57.037Z,100920.78
2022-08-20T21:01:34.518Z,100931.69
2022-08-20T21:04:14.416Z,100935.34
2022-08-20T21:06:42.263Z,100932.75
2022-08-20T21:09:10.217Z,100930.25
2022-08-20T21:11:38.073Z,100926.69
2022-08-20T21:14:05.981Z,100928.63
2022-08-20T21:16:33.917Z,100936.88
2022-08-20T21:19:02.169Z,100929.78
2022-08-20T21:21:31.420Z,100932.63
2022-08-20T21:23:59.247Z,100930.06
2022-08-20T21:26:29.048Z,100926.56
2022-08-20T21:28:57.073Z,100928.44
2022-08-20T21:31:27.365Z,100928.53
2022-08-20T21:33:55.252Z,100929.50
2022-08-20T21:36:23.257Z,100930.47
2022-08-20T21:38:52.485Z,100930.53
2022-08-20T21:41:25.125Z,100930.63
2022-08-20T21:43:58.645Z,100920.84
2022-08-20T21:46:28.910Z,100921.78
2022-08-20T21:48:57.304Z,100920.06
2022-08-20T21:51:25.344Z,100923.75
2022-08-20T21:53:54.578Z,100919.34
2022-08-20T21:56:22.638Z,100919.44
2022-08-20T21:58:51.659Z,100923.06
2022-08-20T22:01:23.740Z,100923.16
2022-08-20T22:03:52.097Z,100933.16
2022-08-20T22:06:20.828Z,100924.25
2022-08-20T22:08:48.646Z,100934.09
2022-08-20T22:11:17.983Z,100929.72
2022-08-20T22:13:46.307Z,100923.56
2022-08-20T22:16:16.916Z,100931.72
2022-08-20T22:18:45.285Z,100937.16
2022-08-20T22:21:18.720Z,100932.72
2022-08-20T22:23:46.996Z,100928.31
2022-08-20T22:26:17.463Z,100930.16
2022-08-20T22:28:50.982Z,100930.22
2022-08-20T22:31:22.230Z,100935.63
2022-08-20T22:33:50.084Z,100933.91
2022-08-20T22:36:18.475Z,100929.53
2022-08-20T22:38:47.294Z,100931.44
2022-08-20T22:41:23.508Z,100936.88
2022-08-20T22:43:57.161Z,100947.69
2022-08-20T22:46:27.661Z,100938.78
2022-08-20T22:48:56.077Z,100941.53
2022-08-20T22:51:29.058Z,100941.53
2022-08-20T22:53:58.725Z,100946.94
2022-08-20T22:56:26.706Z,100946.06
2022-08-20T22:58:59.419Z,100940.75
2022-08-20T23:01:28.302Z,100939.88
2022-08-20T23:03:58.279Z,100939.91
2022-08-20T23:06:27.887Z,100942.66
2022-08-20T23:08:55.687Z,100937.34
2022-08-20T23:11:23.553Z,100940.03
2022-08-20T23:13:51.411Z,100940.19
2022-08-20T23:16:20.632Z,100932.19
2022-08-20T23:18:48.501Z,100937.66
2022-08-20T23:21:16.859Z,100936.78
2022-08-20T23:23:44.657Z,100935.03
2022-08-20T23:26:13.991Z,100934.09
2022-08-20T23:28:41.813Z,100942.16
2022-08-20T23:31:09.633Z,100929.63
2022-08-20T23:33:42.934Z,100934.97
2022-08-20T23:36:13.432Z,100929.59
2022-08-20T23:38:42.583Z,100928.66
2022-08-20T23:41:10.529Z,100933.09
2022-08-20T23:43:38.399Z,100923.28
2022-08-20T23:46:08.953Z,100927.81
2022-08-20T23:48:38.487Z,100933.19
2022-08-20T23:51:06.679Z,100926.00
2022-08-20T23:53:34.467Z,100932.31
2022-08-20T23:56:02.389Z,100926.94
2022-08-20T23:58:30.288Z,100932.31
